Zaliv Amerika — C4ZR2 — position and weather

sailwx.info

Track history (hours):
 
Tides and Currents Weather Stations Pressure Air Temp Water Temp Dewpoint Dewpoint Depression Visibility Wind Speed Wind Dir Waves Ship Positions

Zaliv Amerika

Last reported at 2015-Mar-06 03:31 UTC. Time now 2015-Mar-06 04:08 UTC.
Position N 47°36' W 122°21'.

Length 244 m; draft 11.9 m.

Type: Tanker. MMSI: 210435000.

Date/timePositionNaut miles runAvg speedWind from/ knotsBaromVisibWave heightAir tempDewpointWater temp
2015-Mar-06 03:31N 47°36' W 122°21'0 0.0
2015-Mar-06 02:18N 47°36' W 122°21'0 0.2
2015-Mar-06 01:33N 47°36' W 122°21'6 5.7
2015-Mar-06 00:33N 47°39' W 122°28'1211.6
2015-Mar-05 23:33N 47°51' W 122°28'1312.5
2015-Mar-05 22:33N 48°02' W 122°39'1212.4
2015-Mar-05 21:33N 48°11' W 122°50'1312.7
2015-Mar-05 20:33N 48°12' W 123°09'1111.0
2015-Mar-05 19:33N 48°11' W 123°26'1312.6
2015-Mar-05 18:32N 48°14' W 123°44'1212.4
2015-Mar-05 17:33N 48°16' W 124°02'3411.1
2015-Mar-05 14:29N 48°28' W 124°50'1111.1
2015-Mar-05 13:32N 48°29' W 125°06'1111.7
2015-Mar-05 12:33N 48°29' W 125°23'1211.8
2015-Mar-05 11:33N 48°28' W 125°41'1211.7
2015-Mar-05 10:33N 48°28' W 125°58'1211.8
2015-Mar-05 09:30N 48°28' W 126°17'1212.0
2015-Mar-05 08:32N 48°27' W 126°35'  
Track history (hours):
 
Tides and Currents Weather Stations Pressure Air Temp Water Temp Dewpoint Dewpoint Depression Visibility Wind Speed Wind Dir Waves Ship Positions

Zaliv Amerika

Last reported at 2015-Mar-06 03:31 UTC. Time now 2015-Mar-06 04:08 UTC.
Position N 47°36' W 122°21'.

Length 244 m; draft 11.9 m.

Type: Tanker. MMSI: 210435000.

Date/timePositionNaut miles runAvg speedWind from/ knotsBaromVisibWave heightAir tempDewpointWater temp
2015-Mar-06 03:31N 47°36' W 122°21'0 0.0
2015-Mar-06 02:18N 47°36' W 122°21'0 0.2
2015-Mar-06 01:33N 47°36' W 122°21'6 5.7
2015-Mar-06 00:33N 47°39' W 122°28'1211.6
2015-Mar-05 23:33N 47°51' W 122°28'1312.5
2015-Mar-05 22:33N 48°02' W 122°39'1212.4
2015-Mar-05 21:33N 48°11' W 122°50'1312.7
2015-Mar-05 20:33N 48°12' W 123°09'1111.0
2015-Mar-05 19:33N 48°11' W 123°26'1312.6
2015-Mar-05 18:32N 48°14' W 123°44'1212.4
2015-Mar-05 17:33N 48°16' W 124°02'3411.1
2015-Mar-05 14:29N 48°28' W 124°50'1111.1
2015-Mar-05 13:32N 48°29' W 125°06'1111.7
2015-Mar-05 12:33N 48°29' W 125°23'1211.8
2015-Mar-05 11:33N 48°28' W 125°41'1211.7
2015-Mar-05 10:33N 48°28' W 125°58'1211.8
2015-Mar-05 09:30N 48°28' W 126°17'1212.0
2015-Mar-05 08:32N 48°27' W 126°35'  

Dump ship's entire track history